Time;durP1;ratioP1;P1;durP2;ratioP2;P2;SDS_P1;SDS_P2;PMS_P1;PMS_P2;Temp;Humidity;BMP_temperature;BMP_pressure;BME280_temperature;BME280_humidity;BME280_pressure;Samples;Min_cycle;Max_cycle;Signal;HPM_P1;HPM_P2
2022/09/18 00:01:18;;;;;;;3.53;1.10;;;;;;;;;;5014269;28;20077;-70
2022/09/18 00:03:46;;;;;;;7.93;1.27;;;;;;;;;;5014004;28;20046;-70
2022/09/18 00:06:20;;;;;;;5.55;1.30;;;;;;;;;;5013969;28;20053;-69
2022/09/18 00:08:51;;;;;;;3.83;1.05;;;;;;;;;;5013893;28;20107;-69
2022/09/18 00:11:19;;;;;;;4.47;1.00;;;;;;;;;;5014043;28;20413;-69
2022/09/18 00:13:46;;;;;;;6.03;1.20;;;;;;;;;;4996859;28;20049;-69
2022/09/18 00:16:13;;;;;;;10.13;1.55;;;;;;;;;;5013686;28;20045;-69
2022/09/18 00:18:40;;;;;;;4.07;1.10;;;;;;;;;;5017892;28;20488;-69
2022/09/18 00:21:11;;;;;;;4.57;1.20;;;;;;;;;;5013979;28;20056;-70
2022/09/18 00:23:39;;;;;;;3.10;0.90;;;;;;;;;;4996258;28;20056;-69
2022/09/18 00:26:06;;;;;;;8.25;1.30;;;;;;;;;;5013727;28;20050;-69
2022/09/18 00:28:33;;;;;;;4.47;1.20;;;;;;;;;;4996339;28;20096;-70
2022/09/18 00:31:15;;;;;;;6.47;1.48;;;;;;;;;;5013729;28;20104;-70
2022/09/18 00:33:42;;;;;;;5.70;1.25;;;;;;;;;;5013506;28;20088;-70
2022/09/18 00:36:14;;;;;;;5.85;1.70;;;;;;;;;;4996540;28;20116;-69
2022/09/18 00:38:41;;;;;;;5.55;1.42;;;;;;;;;;5013547;28;20072;-69
2022/09/18 00:41:15;;;;;;;5.05;1.08;;;;;;;;;;5013458;28;20058;-70
2022/09/18 00:43:42;;;;;;;6.22;1.40;;;;;;;;;;4996923;28;20050;-69
2022/09/18 00:46:29;;;;;;;10.13;1.20;;;;;;;;;;4995891;28;20100;-70
2022/09/18 00:49:16;;;;;;;2.63;0.80;;;;;;;;;;4979853;28;20133;-70
2022/09/18 00:51:44;;;;;;;3.83;1.40;;;;;;;;;;4996063;28;20104;-69
2022/09/18 00:54:17;;;;;;;5.20;1.20;;;;;;;;;;5013025;28;20096;-69
2022/09/18 00:56:44;;;;;;;2.83;0.95;;;;;;;;;;4995994;28;20050;-69
2022/09/18 00:59:12;;;;;;;4.72;1.30;;;;;;;;;;4979570;28;20100;-69
2022/09/18 01:01:38;;;;;;;7.13;1.67;;;;;;;;;;4979920;28;20463;-70
2022/09/18 01:04:10;;;;;;;2.42;1.02;;;;;;;;;;5013145;28;20077;-70
2022/09/18 01:07:05;;;;;;;3.33;1.08;;;;;;;;;;4980046;28;20111;-70
2022/09/18 01:09:41;;;;;;;4.68;1.33;;;;;;;;;;4997812;28;20050;-70
2022/09/18 01:12:35;;;;;;;4.90;1.30;;;;;;;;;;5013042;28;20049;-70
2022/09/18 01:15:08;;;;;;;3.38;1.63;;;;;;;;;;4995697;28;20460;-70
2022/09/18 01:17:43;;;;;;;4.40;1.50;;;;;;;;;;4995466;28;20053;-69
2022/09/18 01:20:18;;;;;;;7.05;1.48;;;;;;;;;;4995061;28;20120;-70
2022/09/18 01:23:09;;;;;;;5.22;1.60;;;;;;;;;;4995245;28;20046;-69
2022/09/18 01:25:35;;;;;;;4.53;1.20;;;;;;;;;;4995141;28;20050;-69
2022/09/18 01:28:31;;;;;;;3.80;1.00;;;;;;;;;;5012400;28;20050;-69
2022/09/18 01:31:02;;;;;;;6.00;1.55;;;;;;;;;;4980427;28;20120;-70
2022/09/18 01:33:34;;;;;;;4.47;1.65;;;;;;;;;;4979333;28;20046;-70
2022/09/18 01:36:03;;;;;;;3.50;1.50;;;;;;;;;;4995295;28;20398;-70
2022/09/18 01:38:33;;;;;;;6.88;2.05;;;;;;;;;;4995135;28;20148;-69
2022/09/18 01:41:11;;;;;;;7.28;1.48;;;;;;;;;;4995372;28;20137;-70
2022/09/18 01:43:38;;;;;;;4.47;1.00;;;;;;;;;;4995217;28;20050;-69
2022/09/18 01:46:12;;;;;;;3.17;1.00;;;;;;;;;;4979146;28;20088;-69
2022/09/18 01:48:49;;;;;;;4.65;1.08;;;;;;;;;;4994977;28;20141;-70
2022/09/18 01:51:19;;;;;;;3.88;0.85;;;;;;;;;;4995498;28;20129;-70
2022/09/18 01:54:07;;;;;;;3.17;0.80;;;;;;;;;;4979561;28;20052;-69
2022/09/18 01:56:41;;;;;;;3.20;1.10;;;;;;;;;;4995137;28;20054;-70
2022/09/18 01:59:10;;;;;;;4.93;1.25;;;;;;;;;;4979112;28;20107;-69
2022/09/18 02:01:37;;;;;;;5.00;1.10;;;;;;;;;;4994741;28;20053;-69
2022/09/18 02:04:07;;;;;;;4.65;0.95;;;;;;;;;;4978529;28;20509;-70
2022/09/18 02:06:38;;;;;;;4.25;1.25;;;;;;;;;;4979328;28;20140;-70
2022/09/18 02:09:05;;;;;;;8.30;1.15;;;;;;;;;;4994920;28;20451;-70
2022/09/18 02:11:32;;;;;;;4.82;1.35;;;;;;;;;;4978844;28;20054;-70
2022/09/18 02:14:08;;;;;;;3.60;0.88;;;;;;;;;;4994758;28;20085;-69
2022/09/18 02:16:38;;;;;;;2.67;1.20;;;;;;;;;;4994721;28;20050;-69
2022/09/18 02:19:08;;;;;;;3.00;0.90;;;;;;;;;;4994926;28;20136;-69
2022/09/18 02:21:35;;;;;;;5.32;1.10;;;;;;;;;;4979067;28;20046;-69
2022/09/18 02:24:06;;;;;;;6.28;1.20;;;;;;;;;;4994624;28;20133;-69
2022/09/18 02:26:33;;;;;;;1.77;0.93;;;;;;;;;;4979064;28;20061;-69
2022/09/18 02:28:59;;;;;;;3.88;1.20;;;;;;;;;;4994594;28;20077;-70
2022/09/18 02:31:26;;;;;;;4.47;1.02;;;;;;;;;;4994958;28;20053;-70
2022/09/18 02:33:53;;;;;;;6.05;1.10;;;;;;;;;;4994746;28;20096;-70
2022/09/18 02:36:43;;;;;;;5.05;1.30;;;;;;;;;;5013051;28;20077;-70
2022/09/18 02:39:31;;;;;;;2.70;0.85;;;;;;;;;;5015306;28;20144;-70
2022/09/18 02:42:07;;;;;;;7.03;1.67;;;;;;;;;;5015686;28;20050;-70
2022/09/18 02:44:42;;;;;;;4.72;1.13;;;;;;;;;;4999132;28;20046;-70
2022/09/18 02:47:28;;;;;;;2.38;1.00;;;;;;;;;;4998427;28;20053;-69
2022/09/18 02:50:17;;;;;;;6.00;1.48;;;;;;;;;;4999606;28;20141;-70
2022/09/18 02:53:09;;;;;;;5.72;1.00;;;;;;;;;;5015708;28;20097;-70
2022/09/18 02:55:49;;;;;;;6.55;1.10;;;;;;;;;;5001329;28;20054;-69
2022/09/18 02:58:21;;;;;;;7.47;1.45;;;;;;;;;;4966533;28;20136;-69
2022/09/18 03:00:48;;;;;;;3.60;1.05;;;;;;;;;;5015438;28;20530;-69
2022/09/18 03:03:16;;;;;;;3.13;0.73;;;;;;;;;;4981901;28;20046;-69
2022/09/18 03:05:43;;;;;;;4.93;1.70;;;;;;;;;;5015215;28;20420;-69
2022/09/18 03:08:11;;;;;;;3.50;1.02;;;;;;;;;;5015222;28;20065;-69
2022/09/18 03:10:37;;;;;;;6.90;1.30;;;;;;;;;;5015057;28;20064;-69
2022/09/18 03:13:04;;;;;;;4.47;1.15;;;;;;;;;;5015248;28;20078;-70
2022/09/18 03:15:30;;;;;;;2.63;1.73;;;;;;;;;;5015133;28;20081;-69
2022/09/18 03:17:57;;;;;;;3.08;1.02;;;;;;;;;;5014935;28;20073;-69
2022/09/18 03:20:24;;;;;;;4.28;1.00;;;;;;;;;;5014931;28;20060;-69
2022/09/18 03:22:50;;;;;;;3.17;1.00;;;;;;;;;;5014602;28;20089;-69
2022/09/18 03:25:17;;;;;;;3.38;1.20;;;;;;;;;;5014759;28;20512;-70
2022/09/18 03:27:43;;;;;;;1.90;1.20;;;;;;;;;;5015178;28;20073;-70
2022/09/18 03:30:10;;;;;;;2.08;0.95;;;;;;;;;;5014700;28;20104;-70
2022/09/18 03:32:37;;;;;;;2.75;1.02;;;;;;;;;;5014547;28;20054;-70
2022/09/18 03:35:04;;;;;;;4.05;1.20;;;;;;;;;;5014585;28;20061;-70
2022/09/18 03:37:30;;;;;;;3.05;1.05;;;;;;;;;;5014427;28;20056;-70
2022/09/18 03:39:57;;;;;;;3.00;0.90;;;;;;;;;;5014480;28;20053;-70
2022/09/18 03:42:24;;;;;;;2.38;1.17;;;;;;;;;;5014433;28;20088;-70
2022/09/18 03:44:50;;;;;;;2.13;0.90;;;;;;;;;;4997121;28;20137;-70
2022/09/18 03:47:17;;;;;;;2.90;0.80;;;;;;;;;;5013810;28;20141;-69
2022/09/18 03:49:43;;;;;;;3.42;1.30;;;;;;;;;;5014261;28;20054;-69
2022/09/18 03:52:10;;;;;;;3.70;1.00;;;;;;;;;;5014199;28;20056;-70
2022/09/18 03:54:36;;;;;;;3.20;1.60;;;;;;;;;;5014399;28;20100;-69
2022/09/18 03:57:03;;;;;;;1.45;1.17;;;;;;;;;;5014260;28;20085;-69
2022/09/18 03:59:29;;;;;;;1.90;0.90;;;;;;;;;;5013972;28;20066;-69
2022/09/18 04:01:56;;;;;;;3.42;0.80;;;;;;;;;;5014200;28;20107;-69
2022/09/18 04:04:23;;;;;;;2.35;1.00;;;;;;;;;;5014062;28;20128;-69
2022/09/18 04:06:50;;;;;;;4.07;0.88;;;;;;;;;;5014177;28;20050;-69
2022/09/18 04:09:16;;;;;;;2.10;0.90;;;;;;;;;;5013722;28;20489;-69
2022/09/18 04:11:43;;;;;;;3.53;0.85;;;;;;;;;;5014179;28;20073;-69
2022/09/18 04:14:10;;;;;;;1.40;0.80;;;;;;;;;;5013981;28;20484;-70
2022/09/18 04:16:37;;;;;;;2.45;1.13;;;;;;;;;;4996663;28;20559;-69
2022/09/18 04:19:03;;;;;;;1.50;0.75;;;;;;;;;;4996138;28;20094;-69
2022/09/18 04:21:31;;;;;;;2.47;1.00;;;;;;;;;;5013825;28;20152;-68
2022/09/18 04:23:58;;;;;;;1.13;0.90;;;;;;;;;;5013873;28;20081;-69
2022/09/18 04:26:25;;;;;;;5.00;1.17;;;;;;;;;;5013835;28;20049;-68
2022/09/18 04:28:52;;;;;;;3.17;0.98;;;;;;;;;;5013567;28;20163;-69
2022/09/18 04:31:19;;;;;;;1.60;0.77;;;;;;;;;;5013520;28;20145;-69
2022/09/18 04:33:45;;;;;;;4.70;1.08;;;;;;;;;;5013334;28;20046;-69
2022/09/18 04:36:12;;;;;;;1.20;0.70;;;;;;;;;;5013869;28;20049;-69
2022/09/18 04:38:39;;;;;;;2.42;0.90;;;;;;;;;;5013302;28;20077;-68
2022/09/18 04:41:05;;;;;;;4.30;1.23;;;;;;;;;;5013632;28;20501;-69
2022/09/18 04:43:32;;;;;;;1.70;1.10;;;;;;;;;;5013209;28;20141;-69
2022/09/18 04:45:58;;;;;;;2.45;0.68;;;;;;;;;;5013400;28;20128;-69
2022/09/18 04:48:25;;;;;;;1.55;0.63;;;;;;;;;;5013164;28;20497;-69
2022/09/18 04:50:52;;;;;;;1.45;0.70;;;;;;;;;;5013314;28;20108;-69
2022/09/18 04:53:18;;;;;;;2.00;0.93;;;;;;;;;;5013028;28;20054;-69
2022/09/18 04:55:46;;;;;;;1.90;0.77;;;;;;;;;;5013141;28;20080;-69
2022/09/18 04:58:13;;;;;;;1.85;0.98;;;;;;;;;;5012901;28;20081;-68
2022/09/18 05:00:40;;;;;;;1.10;0.98;;;;;;;;;;5012506;28;20096;-69
2022/09/18 05:03:07;;;;;;;2.90;1.00;;;;;;;;;;5012959;28;20137;-69
2022/09/18 05:05:34;;;;;;;2.85;1.00;;;;;;;;;;5013356;28;20100;-69
2022/09/18 05:08:02;;;;;;;4.00;1.00;;;;;;;;;;5012897;28;20104;-68
2022/09/18 05:10:28;;;;;;;4.28;1.10;;;;;;;;;;5013050;28;20144;-68
2022/09/18 05:12:55;;;;;;;11.18;1.45;;;;;;;;;;5012804;28;20090;-69
2022/09/18 05:15:21;;;;;;;2.15;0.80;;;;;;;;;;5012734;28;20076;-69
2022/09/18 05:17:51;;;;;;;6.10;1.10;;;;;;;;;;5013098;28;20189;-69
2022/09/18 05:20:18;;;;;;;5.95;1.05;;;;;;;;;;4979699;28;20452;-69
2022/09/18 05:22:48;;;;;;;2.22;0.90;;;;;;;;;;5012563;28;20053;-69
2022/09/18 05:25:14;;;;;;;5.60;1.40;;;;;;;;;;5012745;28;20088;-69
2022/09/18 05:27:41;;;;;;;4.13;1.25;;;;;;;;;;5012911;28;20100;-69
2022/09/18 05:30:08;;;;;;;4.25;1.75;;;;;;;;;;5012298;28;20073;-69
2022/09/18 05:32:35;;;;;;;3.15;1.50;;;;;;;;;;4995202;28;20053;-69
2022/09/18 05:35:01;;;;;;;3.03;1.20;;;;;;;;;;5012481;28;20049;-69
2022/09/18 05:37:28;;;;;;;3.55;1.20;;;;;;;;;;4995306;28;20046;-69
2022/09/18 05:39:55;;;;;;;5.10;1.48;;;;;;;;;;5012491;28;20056;-68
2022/09/18 05:42:21;;;;;;;4.43;1.40;;;;;;;;;;5012376;28;20053;-69
2022/09/18 05:44:48;;;;;;;1.90;1.25;;;;;;;;;;5012172;28;20085;-68
2022/09/18 05:47:15;;;;;;;4.95;1.50;;;;;;;;;;5012412;28;20531;-69
2022/09/18 05:49:41;;;;;;;1.13;0.98;;;;;;;;;;5012420;28;20102;-69
2022/09/18 05:52:08;;;;;;;1.77;1.13;;;;;;;;;;5012448;28;20081;-69
2022/09/18 05:54:35;;;;;;;4.53;1.50;;;;;;;;;;5012873;28;20133;-69
2022/09/18 05:57:01;;;;;;;5.85;1.30;;;;;;;;;;5012103;28;20132;-69
2022/09/18 05:59:28;;;;;;;1.20;1.10;;;;;;;;;;5012283;28;20088;-69
2022/09/18 06:01:55;;;;;;;2.17;1.40;;;;;;;;;;5012492;28;20050;-70
2022/09/18 06:04:21;;;;;;;2.85;1.65;;;;;;;;;;5012192;28;20052;-69
2022/09/18 06:06:48;;;;;;;4.63;1.30;;;;;;;;;;5012371;28;20553;-69
2022/09/18 06:09:15;;;;;;;4.07;1.52;;;;;;;;;;5012030;28;20053;-69
2022/09/18 06:11:41;;;;;;;2.22;1.20;;;;;;;;;;5015833;28;20073;-69
2022/09/18 06:14:08;;;;;;;2.80;1.50;;;;;;;;;;5016204;28;20081;-69
2022/09/18 06:16:35;;;;;;;2.30;1.48;;;;;;;;;;5016132;28;20054;-69
2022/09/18 06:19:07;;;;;;;3.95;1.40;;;;;;;;;;5015989;28;20049;-69
2022/09/18 06:21:34;;;;;;;2.72;1.30;;;;;;;;;;5017182;28;20085;-70
2022/09/18 06:24:00;;;;;;;3.50;1.48;;;;;;;;;;5030598;28;20061;-70
2022/09/18 06:26:27;;;;;;;2.80;1.30;;;;;;;;;;5018212;28;20057;-70
2022/09/18 06:28:54;;;;;;;4.20;1.88;;;;;;;;;;5015971;28;20077;-70
2022/09/18 06:31:20;;;;;;;2.90;1.75;;;;;;;;;;5015898;28;20096;-69
2022/09/18 06:33:48;;;;;;;8.00;2.28;;;;;;;;;;5015788;28;20045;-70
2022/09/18 06:36:15;;;;;;;3.78;2.00;;;;;;;;;;5015979;28;20492;-70
2022/09/18 06:38:41;;;;;;;4.97;2.17;;;;;;;;;;5015635;28;20053;-70
2022/09/18 06:41:08;;;;;;;6.45;1.65;;;;;;;;;;5015561;28;20096;-70
2022/09/18 06:43:35;;;;;;;3.50;1.73;;;;;;;;;;5015645;28;20145;-69
2022/09/18 06:46:03;;;;;;;2.88;1.60;;;;;;;;;;5015932;28;20053;-69
2022/09/18 06:48:30;;;;;;;2.58;1.40;;;;;;;;;;5015813;28;20085;-70
2022/09/18 06:50:57;;;;;;;4.60;1.73;;;;;;;;;;5015674;28;20464;-70
2022/09/18 06:53:27;;;;;;;2.67;1.25;;;;;;;;;;5015237;28;20512;-69
2022/09/18 06:55:58;;;;;;;4.22;1.63;;;;;;;;;;5015599;28;20092;-69
2022/09/18 06:58:25;;;;;;;4.03;1.85;;;;;;;;;;5015486;28;20057;-69
2022/09/18 07:00:51;;;;;;;4.20;1.50;;;;;;;;;;5015583;28;20118;-69
2022/09/18 07:03:18;;;;;;;4.88;1.70;;;;;;;;;;5015158;28;20065;-68
2022/09/18 07:05:45;;;;;;;2.53;1.42;;;;;;;;;;5015311;28;20551;-69
2022/09/18 07:08:12;;;;;;;4.80;1.65;;;;;;;;;;5015553;28;20050;-69
2022/09/18 07:10:39;;;;;;;2.15;1.73;;;;;;;;;;5015083;28;20086;-69
2022/09/18 07:13:06;;;;;;;3.67;1.40;;;;;;;;;;5015105;28;20061;-69
2022/09/18 07:15:33;;;;;;;3.40;1.50;;;;;;;;;;4997709;28;20077;-69
2022/09/18 07:18:00;;;;;;;1.95;1.42;;;;;;;;;;5015004;28;20454;-69
2022/09/18 07:20:28;;;;;;;2.25;1.38;;;;;;;;;;5014784;28;20049;-69
2022/09/18 07:22:59;;;;;;;6.03;1.80;;;;;;;;;;5014127;28;20433;-69
2022/09/18 07:25:28;;;;;;;3.67;1.02;;;;;;;;;;5014966;28;20045;-69
2022/09/18 07:27:54;;;;;;;4.75;1.52;;;;;;;;;;5014818;28;20137;-69
2022/09/18 07:30:21;;;;;;;2.92;1.10;;;;;;;;;;5014670;28;20050;-69
2022/09/18 07:32:47;;;;;;;3.08;1.55;;;;;;;;;;5014694;28;20084;-69
2022/09/18 07:35:14;;;;;;;3.65;1.23;;;;;;;;;;5014671;28;20504;-69
2022/09/18 07:37:41;;;;;;;4.28;1.70;;;;;;;;;;5014577;28;20104;-69
2022/09/18 07:40:09;;;;;;;3.20;1.30;;;;;;;;;;5014470;28;20053;-69
2022/09/18 07:42:35;;;;;;;3.58;1.17;;;;;;;;;;5014504;28;20108;-69
2022/09/18 07:45:02;;;;;;;3.70;1.52;;;;;;;;;;5014857;28;20086;-69
2022/09/18 07:47:29;;;;;;;3.13;1.00;;;;;;;;;;5014508;28;20050;-69
2022/09/18 07:49:55;;;;;;;6.72;1.20;;;;;;;;;;5014411;28;20073;-69
2022/09/18 07:52:22;;;;;;;3.88;1.13;;;;;;;;;;5014292;28;20053;-69
2022/09/18 07:54:49;;;;;;;3.63;1.48;;;;;;;;;;5014565;28;20096;-69
2022/09/18 07:57:16;;;;;;;3.10;1.10;;;;;;;;;;5014742;28;20150;-69
2022/09/18 07:59:42;;;;;;;5.35;1.05;;;;;;;;;;5014299;28;20532;-70
2022/09/18 08:02:10;;;;;;;2.80;1.20;;;;;;;;;;5014122;28;20074;-70
2022/09/18 08:04:37;;;;;;;2.17;1.13;;;;;;;;;;5014133;28;20137;-70
2022/09/18 08:07:04;;;;;;;4.47;1.30;;;;;;;;;;5014336;28;20061;-70
2022/09/18 08:09:31;;;;;;;1.10;1.00;;;;;;;;;;5013923;28;20517;-70
2022/09/18 08:11:57;;;;;;;1.80;0.70;;;;;;;;;;5014260;28;20107;-70
2022/09/18 08:14:24;;;;;;;3.05;1.20;;;;;;;;;;5014077;28;20096;-70
2022/09/18 08:16:54;;;;;;;3.78;2.00;;;;;;;;;;5013782;28;20082;-70
2022/09/18 08:19:21;;;;;;;3.47;1.60;;;;;;;;;;5014269;28;20413;-70
2022/09/18 08:21:48;;;;;;;5.20;1.20;;;;;;;;;;5014096;28;20054;-70
2022/09/18 08:24:16;;;;;;;4.00;1.00;;;;;;;;;;5013533;28;20136;-69
2022/09/18 08:26:43;;;;;;;3.33;1.30;;;;;;;;;;5013982;28;20072;-70
2022/09/18 08:29:17;;;;;;;6.13;2.08;;;;;;;;;;5013820;28;20046;-70
2022/09/18 08:31:47;;;;;;;3.55;1.25;;;;;;;;;;5014153;28;20049;-70
2022/09/18 08:34:14;;;;;;;1.25;0.93;;;;;;;;;;5013951;28;20067;-70
2022/09/18 08:36:40;;;;;;;3.67;1.40;;;;;;;;;;5014585;28;20085;-70
2022/09/18 08:39:07;;;;;;;2.88;1.60;;;;;;;;;;4996403;28;20132;-69
2022/09/18 08:41:38;;;;;;;3.05;1.10;;;;;;;;;;5013521;28;20136;-70
2022/09/18 08:44:07;;;;;;;2.72;1.20;;;;;;;;;;4996628;28;20104;-70
2022/09/18 08:46:42;;;;;;;3.33;1.15;;;;;;;;;;4996364;28;20128;-70
2022/09/18 08:49:28;;;;;;;1.83;0.90;;;;;;;;;;4980122;28;20046;-70
2022/09/18 08:52:02;;;;;;;2.17;0.90;;;;;;;;;;5013338;28;20477;-70
2022/09/18 08:54:50;;;;;;;2.55;1.20;;;;;;;;;;5013360;28;20428;-70
2022/09/18 08:57:20;;;;;;;1.23;1.10;;;;;;;;;;5013486;28;20084;-69
2022/09/18 08:59:55;;;;;;;1.48;1.17;;;;;;;;;;4995993;28;20078;-68
2022/09/18 09:02:28;;;;;;;3.08;1.00;;;;;;;;;;4996273;28;20050;-68
2022/09/18 09:04:56;;;;;;;;;;;;;;;;;;4996302;28;20052;-69
2022/09/18 09:07:49;;;;;;;3.03;1.40;;;;;;;;;;5012953;28;19921;-68
2022/09/18 09:10:18;;;;;;;1.73;1.17;;;;;;;;;;4986263;28;20057;-68
2022/09/18 09:12:48;;;;;;;4.28;1.00;;;;;;;;;;5013040;28;20046;-68
2022/09/18 09:15:29;;;;;;;3.90;1.67;;;;;;;;;;5013138;28;20057;-68
2022/09/18 09:18:08;;;;;;;4.75;1.88;;;;;;;;;;4981171;28;20136;-68
2022/09/18 09:20:49;;;;;;;3.75;1.70;;;;;;;;;;5012957;28;20073;-69
2022/09/18 09:23:37;;;;;;;4.28;2.33;;;;;;;;;;4995653;28;20397;-68
2022/09/18 09:26:06;;;;;;;3.13;1.63;;;;;;;;;;4995814;28;20136;-68
2022/09/18 09:28:40;;;;;;;3.38;1.45;;;;;;;;;;4979739;28;20046;-69
2022/09/18 09:31:07;;;;;;;1.08;0.77;;;;;;;;;;4980467;28;20050;-68
2022/09/18 09:33:39;;;;;;;3.65;1.10;;;;;;;;;;4979290;28;20469;-69
2022/09/18 09:36:11;;;;;;;2.80;1.35;;;;;;;;;;4963627;28;20054;-68
2022/09/18 09:39:07;;;;;;;6.85;1.60;;;;;;;;;;4995179;28;20543;-68
2022/09/18 09:41:39;;;;;;;3.50;1.45;;;;;;;;;;5012796;28;20077;-68
2022/09/18 09:44:30;;;;;;;2.17;1.10;;;;;;;;;;4995711;28;20096;-68
2022/09/18 09:46:59;;;;;;;2.25;1.05;;;;;;;;;;5012459;28;20057;-68
2022/09/18 09:49:32;;;;;;;3.63;1.08;;;;;;;;;;5012656;28;20049;-68
2022/09/18 09:52:04;;;;;;;4.90;1.80;;;;;;;;;;5012637;28;20060;-68
2022/09/18 09:54:35;;;;;;;5.20;1.23;;;;;;;;;;5012814;28;20049;-68
2022/09/18 09:57:32;;;;;;;2.50;1.13;;;;;;;;;;4996038;28;20050;-69
2022/09/18 10:00:11;;;;;;;2.75;0.90;;;;;;;;;;4997079;28;20089;-69
2022/09/18 10:03:12;;;;;;;3.55;0.90;;;;;;;;;;4995403;28;20123;-69
2022/09/18 10:06:20;;;;;;;3.08;0.80;;;;;;;;;;5012238;28;20046;-69
2022/09/18 10:09:02;;;;;;;3.03;1.55;;;;;;;;;;5012232;28;20130;-69
2022/09/18 10:11:29;;;;;;;5.30;1.42;;;;;;;;;;4997114;28;20058;-69
2022/09/18 10:14:01;;;;;;;3.17;1.15;;;;;;;;;;4994912;28;20058;-69
2022/09/18 10:16:33;;;;;;;3.92;1.60;;;;;;;;;;4995095;28;20057;-69
2022/09/18 10:19:00;;;;;;;4.18;1.42;;;;;;;;;;4978898;28;20092;-69
2022/09/18 10:21:27;;;;;;;5.32;1.15;;;;;;;;;;4978876;28;20132;-70
2022/09/18 10:24:13;;;;;;;4.50;1.15;;;;;;;;;;4994515;28;20049;-69
2022/09/18 10:27:00;;;;;;;3.22;1.02;;;;;;;;;;5012266;28;20046;-69
2022/09/18 10:29:27;;;;;;;1.55;0.80;;;;;;;;;;4997675;28;20054;-69
2022/09/18 10:32:00;;;;;;;6.10;1.15;;;;;;;;;;4995681;28;20398;-69
2022/09/18 10:34:29;;;;;;;3.72;0.88;;;;;;;;;;5012193;28;20089;-68
2022/09/18 10:36:56;;;;;;;2.13;0.98;;;;;;;;;;5011903;28;20137;-69
2022/09/18 10:39:33;;;;;;;5.90;1.30;;;;;;;;;;5011979;28;20480;-68
2022/09/18 10:42:04;;;;;;;6.47;0.98;;;;;;;;;;5012135;28;20501;-69
2022/09/18 10:44:39;;;;;;;7.60;1.20;;;;;;;;;;5011797;28;20050;-69
2022/09/18 10:47:11;;;;;;;3.53;0.90;;;;;;;;;;5012451;28;20129;-68
2022/09/18 10:49:52;;;;;;;8.02;0.80;;;;;;;;;;4979286;28;20555;-69
2022/09/18 10:52:21;;;;;;;3.58;1.00;;;;;;;;;;4995094;28;20049;-69
2022/09/18 10:54:59;;;;;;;2.17;0.80;;;;;;;;;;5012056;28;20101;-69
2022/09/18 10:57:36;;;;;;;5.28;1.70;;;;;;;;;;4995913;28;20141;-69
2022/09/18 11:00:23;;;;;;;3.67;0.90;;;;;;;;;;4997722;28;20112;-69
2022/09/18 11:02:55;;;;;;;6.60;1.20;;;;;;;;;;5004862;28;20050;-69
2022/09/18 11:05:56;;;;;;;3.10;0.95;;;;;;;;;;4997778;28;20136;-69
2022/09/18 11:08:25;;;;;;;2.60;0.93;;;;;;;;;;5015340;28;20141;-69
2022/09/18 11:10:59;;;;;;;5.90;0.73;;;;;;;;;;4998046;28;20089;-69
2022/09/18 11:13:26;;;;;;;1.83;0.47;;;;;;;;;;4982090;28;20096;-69
2022/09/18 11:15:58;;;;;;;3.92;0.80;;;;;;;;;;4997612;28;20082;-69
2022/09/18 11:18:25;;;;;;;3.20;0.60;;;;;;;;;;5014960;28;20054;-69
2022/09/18 11:20:52;;;;;;;2.28;0.73;;;;;;;;;;4997673;28;20141;-69
2022/09/18 11:23:29;;;;;;;2.33;0.52;;;;;;;;;;5015113;28;20460;-69
2022/09/18 11:26:11;;;;;;;2.90;0.82;;;;;;;;;;4997967;28;20081;-69
2022/09/18 11:28:38;;;;;;;1.20;0.52;;;;;;;;;;5014827;28;20144;-70
2022/09/18 11:31:18;;;;;;;1.67;0.60;;;;;;;;;;4981694;28;20136;-69
2022/09/18 11:33:52;;;;;;;2.60;0.52;;;;;;;;;;5014790;28;20049;-70
2022/09/18 11:36:26;;;;;;;1.75;0.60;;;;;;;;;;4997939;28;20501;-70
2022/09/18 11:38:53;;;;;;;3.28;0.80;;;;;;;;;;4981355;28;20085;-69
2022/09/18 11:41:42;;;;;;;1.58;0.70;;;;;;;;;;4997369;28;20182;-70
2022/09/18 11:44:24;;;;;;;2.17;0.82;;;;;;;;;;5014808;28;20077;-69
2022/09/18 11:47:17;;;;;;;3.35;0.73;;;;;;;;;;4998206;28;20137;-69
2022/09/18 11:49:46;;;;;;;8.85;0.75;;;;;;;;;;5011730;28;20081;-70
2022/09/18 11:52:19;;;;;;;2.25;0.75;;;;;;;;;;4997720;28;20144;-69
2022/09/18 11:54:48;;;;;;;1.98;0.68;;;;;;;;;;4997562;28;20141;-69
2022/09/18 11:57:35;;;;;;;3.58;0.40;;;;;;;;;;5014322;28;20129;-70
2022/09/18 12:00:09;;;;;;;2.17;0.70;;;;;;;;;;4982516;28;20441;-69
2022/09/18 12:03:05;;;;;;;2.33;0.70;;;;;;;;;;5014459;28;20468;-69
2022/09/18 12:05:39;;;;;;;1.83;0.40;;;;;;;;;;4996674;28;20547;-69
2022/09/18 12:08:25;;;;;;;2.47;0.50;;;;;;;;;;4997465;28;20058;-69
2022/09/18 12:11:13;;;;;;;2.47;1.00;;;;;;;;;;5014429;28;20666;-69
2022/09/18 12:14:19;;;;;;;3.38;1.00;;;;;;;;;;5014159;28;20077;-69
2022/09/18 12:16:56;;;;;;;1.88;0.50;;;;;;;;;;4971065;28;20085;-70
2022/09/18 12:19:38;;;;;;;2.25;0.70;;;;;;;;;;4997189;28;20468;-69
2022/09/18 12:22:17;;;;;;;6.05;0.60;;;;;;;;;;4997269;28;20240;-69
2022/09/18 12:24:43;;;;;;;1.80;0.68;;;;;;;;;;4996962;28;20050;-69
2022/09/18 12:27:35;;;;;;;2.38;0.65;;;;;;;;;;5013906;28;20056;-70
2022/09/18 12:30:09;;;;;;;0.88;0.40;;;;;;;;;;4996458;28;20120;-70
2022/09/18 12:33:13;;;;;;;1.95;0.70;;;;;;;;;;4996338;28;20085;-70
2022/09/18 12:35:40;;;;;;;3.65;0.60;;;;;;;;;;5014262;28;20084;-70
2022/09/18 12:38:32;;;;;;;1.75;0.47;;;;;;;;;;5013967;28;20050;-70
2022/09/18 12:41:11;;;;;;;4.38;0.70;;;;;;;;;;4999025;28;20104;-70
2022/09/18 12:44:15;;;;;;;1.63;0.70;;;;;;;;;;5013604;28;20449;-70
2022/09/18 12:46:48;;;;;;;2.83;0.85;;;;;;;;;;4996276;28;20053;-70
2022/09/18 12:49:27;;;;;;;1.13;0.75;;;;;;;;;;5013273;28;20053;-70
2022/09/18 12:52:02;;;;;;;2.33;0.50;;;;;;;;;;5013110;28;20096;-70
2022/09/18 12:54:47;;;;;;;1.10;0.50;;;;;;;;;;5013118;28;20050;-70
2022/09/18 12:57:14;;;;;;;1.70;0.40;;;;;;;;;;5013289;28;20141;-69
2022/09/18 12:59:53;;;;;;;2.20;0.40;;;;;;;;;;5013241;28;20153;-70
2022/09/18 13:02:46;;;;;;;0.60;0.60;;;;;;;;;;4996237;28;20100;-69
2022/09/18 13:05:44;;;;;;;1.65;0.57;;;;;;;;;;5013091;28;20398;-70
2022/09/18 13:08:40;;;;;;;1.20;0.60;;;;;;;;;;4980553;28;20069;-69
2022/09/18 13:11:37;;;;;;;1.17;0.55;;;;;;;;;;5013101;28;20108;-69
2022/09/18 13:14:18;;;;;;;2.78;0.63;;;;;;;;;;4975074;28;20549;-69
2022/09/18 13:16:51;;;;;;;1.85;0.60;;;;;;;;;;4995589;28;20500;-69
2022/09/18 13:19:28;;;;;;;1.52;0.50;;;;;;;;;;4978965;28;20116;-70
2022/09/18 13:21:56;;;;;;;2.13;1.05;;;;;;;;;;5012941;28;20103;-70
2022/09/18 13:24:34;;;;;;;2.80;0.80;;;;;;;;;;4979433;28;20145;-70
2022/09/18 13:27:02;;;;;;;2.08;0.60;;;;;;;;;;4981251;28;20497;-69
2022/09/18 13:29:51;;;;;;;1.25;0.55;;;;;;;;;;4995269;28;20448;-69
2022/09/18 13:32:31;;;;;;;3.80;0.80;;;;;;;;;;5012785;28;20054;-69
2022/09/18 13:35:06;;;;;;;1.08;0.60;;;;;;;;;;4997401;28;20112;-70
2022/09/18 13:37:33;;;;;;;1.70;0.70;;;;;;;;;;4963626;28;20049;-69
2022/09/18 13:40:00;;;;;;;2.28;0.75;;;;;;;;;;5012518;28;20081;-69
2022/09/18 13:42:42;;;;;;;3.40;0.70;;;;;;;;;;4997455;28;20452;-69
2022/09/18 13:45:15;;;;;;;2.97;0.70;;;;;;;;;;5012495;28;20483;-69
2022/09/18 13:48:00;;;;;;;1.98;0.55;;;;;;;;;;5012650;28;20107;-67
2022/09/18 13:50:27;;;;;;;2.25;0.80;;;;;;;;;;5012647;28;20208;-67
2022/09/18 13:52:55;;;;;;;1.17;0.60;;;;;;;;;;4995014;28;20137;-69
2022/09/18 13:55:24;;;;;;;3.55;1.50;;;;;;;;;;5012664;28;20089;-69
2022/09/18 13:57:54;;;;;;;2.35;0.57;;;;;;;;;;5012518;28;20049;-69
2022/09/18 14:00:20;;;;;;;3.80;0.60;;;;;;;;;;4995429;28;20057;-69
2022/09/18 14:02:50;;;;;;;1.10;0.50;;;;;;;;;;5012362;28;20405;-70
2022/09/18 14:05:33;;;;;;;1.52;0.70;;;;;;;;;;4995441;28;20057;-70
2022/09/18 14:08:09;;;;;;;2.50;0.75;;;;;;;;;;4995121;28;20089;-70
2022/09/18 14:11:09;;;;;;;3.35;0.70;;;;;;;;;;4996521;28;20050;-69
2022/09/18 14:13:52;;;;;;;1.55;0.55;;;;;;;;;;5000061;28;20081;-69
2022/09/18 14:16:22;;;;;;;2.05;0.68;;;;;;;;;;5009238;28;20046;-69
2022/09/18 14:19:05;;;;;;;3.08;1.85;;;;;;;;;;4994968;28;20050;-69
2022/09/18 14:21:37;;;;;;;2.40;1.10;;;;;;;;;;4995778;28;20104;-69
2022/09/18 14:24:05;;;;;;;2.53;1.00;;;;;;;;;;5012469;28;20112;-69
2022/09/18 14:26:33;;;;;;;1.23;0.70;;;;;;;;;;4994845;28;20524;-70
2022/09/18 14:29:13;;;;;;;1.95;0.68;;;;;;;;;;5012099;28;20045;-69
2022/09/18 14:31:40;;;;;;;3.25;0.80;;;;;;;;;;4996546;28;20060;-69
2022/09/18 14:34:14;;;;;;;2.35;1.20;;;;;;;;;;5015827;28;20081;-69
2022/09/18 14:36:42;;;;;;;1.10;0.70;;;;;;;;;;4998892;28;20049;-69
2022/09/18 14:39:26;;;;;;;4.15;1.35;;;;;;;;;;5015885;28;20096;-69
2022/09/18 14:41:58;;;;;;;6.68;1.00;;;;;;;;;;5016114;28;20141;-69
2022/09/18 14:44:25;;;;;;;4.93;1.33;;;;;;;;;;5015925;28;20115;-69
2022/09/18 14:47:01;;;;;;;2.88;0.80;;;;;;;;;;5015743;28;20576;-70
2022/09/18 14:49:40;;;;;;;2.50;0.90;;;;;;;;;;4998349;28;20533;-69
2022/09/18 14:52:27;;;;;;;8.13;0.95;;;;;;;;;;5015570;28;20140;-69
2022/09/18 14:54:59;;;;;;;5.07;0.77;;;;;;;;;;5015338;28;20053;-70
2022/09/18 14:57:30;;;;;;;3.20;0.60;;;;;;;;;;5015853;28;20069;-69
2022/09/18 14:59:58;;;;;;;2.60;0.90;;;;;;;;;;4982511;28;20072;-69
2022/09/18 15:02:30;;;;;;;2.00;0.65;;;;;;;;;;4982097;28;20058;-69
2022/09/18 15:04:57;;;;;;;2.28;0.85;;;;;;;;;;5016127;28;20463;-69
2022/09/18 15:07:23;;;;;;;3.30;1.08;;;;;;;;;;4981876;28;20464;-69
2022/09/18 15:09:52;;;;;;;5.03;1.10;;;;;;;;;;4997631;28;20046;-70
2022/09/18 15:12:21;;;;;;;5.05;1.20;;;;;;;;;;4998060;28;20056;-69
2022/09/18 15:14:48;;;;;;;6.85;0.98;;;;;;;;;;4981850;28;20050;-69